This is the latest recevied weather packets stored in our database for station/object I3RKE-10. If no packets are shown the sender has not sent any weather packets the latest 10 day(s).
| Time | Temp. | Humidity | Pressure | Rain* | Wind** | Luminosity | Snow |
|---|---|---|---|---|---|---|---|
| 1777704977 | 17.78° C | 40% | 1019.3 hPa | - | - | - | - |
| 1777704077 | 16.67° C | 42% | 1019.4 hPa | - | - | - | - |
| 1777703177 | 16.11° C | 46% | 1019.5 hPa | - | - | - | - |
| 1777702277 | 15° C | 48% | 1019.5 hPa | - | - | - | - |
| 1777701377 | 14.44° C | 50% | 1019.5 hPa | - | - | - | - |
| 1777700477 | 13.33° C | 52% | 1019.6 hPa | - | - | - | - |
| 1777699577 | 12.22° C | 53% | 1019.7 hPa | - | - | - | - |
| 1777698677 | 11.67° C | 55% | 1019.7 hPa | - | - | - | - |
| 1777697777 | 11.11° C | 56% | 1019.7 hPa | - | - | - | - |
| 1777696876 | 10.56° C | 57% | 1019.8 hPa | - | - | - | - |
| 1777695976 | 10° C | 59% | 1019.7 hPa | - | - | - | - |
| 1777695076 | 10° C | 58% | 1019.6 hPa | - | - | - | - |
| 1777694176 | 10° C | 57% | 1019.7 hPa | - | - | - | - |
| 1777693276 | 10° C | 58% | 1019.7 hPa | - | - | - | - |
| 1777692375 | 10° C | 58% | 1019.7 hPa | - | - | - | - |
| 1777691475 | 10° C | 57% | 1019.7 hPa | - | - | - | - |
| 1777690575 | 10° C | 57% | 1019.9 hPa | - | - | - | - |
| 1777689675 | 10° C | 56% | 1019.9 hPa | - | - | - | - |
| 1777688775 | 10.56° C | 56% | 1019.9 hPa | - | - | - | - |
| 1777674374 | 11.67° C | 50% | 1019.8 hPa | - | - | - | - |
| 1777670772 | 12.22° C | 48% | 1019.5 hPa | - | - | - | - |
| 1777669872 | 12.78° C | 46% | 1019.4 hPa | - | - | - | - |
| 1777668972 | 12.78° C | 45% | 1019.3 hPa | - | - | - | - |
| 1777667172 | 13.89° C | 43% | 1019.2 hPa | - | - | - | - |
| 1777666272 | 13.89° C | 42% | 1019.2 hPa | - | - | - | - |
* Rain since midnight (hover to see other rain measurements)
** Current wind speed in m/s (hover to see current wind gust speed)